sensor_id;sensor_type;location;lat;lon;timestamp;P1;P2;P0
64627;PMS5003;59036;50.960;0.314;2022-10-31T00:00:23;8;8;
64627;PMS5003;59036;50.960;0.314;2022-10-31T00:02:51;7;6;
64627;PMS5003;59036;50.960;0.314;2022-10-31T00:05:18;7;6;
64627;PMS5003;59036;50.960;0.314;2022-10-31T00:07:45;7;7;
64627;PMS5003;59036;50.960;0.314;2022-10-31T00:10:12;9;6;
64627;PMS5003;59036;50.960;0.314;2022-10-31T00:12:39;6;6;
64627;PMS5003;59036;50.960;0.314;2022-10-31T00:15:06;8;8;
64627;PMS5003;59036;50.960;0.314;2022-10-31T00:17:34;9;7;
64627;PMS5003;59036;50.960;0.314;2022-10-31T00:20:02;7;6;
64627;PMS5003;59036;50.960;0.314;2022-10-31T00:22:29;8;7;
64627;PMS5003;59036;50.960;0.314;2022-10-31T00:24:56;6;5;
64627;PMS5003;59036;50.960;0.314;2022-10-31T00:27:23;8;6;
64627;PMS5003;59036;50.960;0.314;2022-10-31T00:29:50;5;5;
64627;PMS5003;59036;50.960;0.314;2022-10-31T00:32:17;6;6;
64627;PMS5003;59036;50.960;0.314;2022-10-31T00:34:45;8;8;
64627;PMS5003;59036;50.960;0.314;2022-10-31T00:37:12;6;6;
64627;PMS5003;59036;50.960;0.314;2022-10-31T00:39:39;6;5;
64627;PMS5003;59036;50.960;0.314;2022-10-31T00:42:06;8;7;
64627;PMS5003;59036;50.960;0.314;2022-10-31T00:44:33;8;8;
64627;PMS5003;59036;50.960;0.314;2022-10-31T00:46:59;6;4;
64627;PMS5003;59036;50.960;0.314;2022-10-31T00:49:27;6;6;
64627;PMS5003;59036;50.960;0.314;2022-10-31T00:51:54;8;6;
64627;PMS5003;59036;50.960;0.314;2022-10-31T00:54:22;7;7;
64627;PMS5003;59036;50.960;0.314;2022-10-31T00:56:49;5;4;
64627;PMS5003;59036;50.960;0.314;2022-10-31T00:59:16;5;5;
64627;PMS5003;59036;50.960;0.314;2022-10-31T01:01:43;5;3;
64627;PMS5003;59036;50.960;0.314;2022-10-31T01:04:11;6;4;
64627;PMS5003;59036;50.960;0.314;2022-10-31T01:06:39;6;5;
64627;PMS5003;59036;50.960;0.314;2022-10-31T01:09:07;7;7;
64627;PMS5003;59036;50.960;0.314;2022-10-31T01:11:34;8;6;
64627;PMS5003;59036;50.960;0.314;2022-10-31T01:14:01;7;6;
64627;PMS5003;59036;50.960;0.314;2022-10-31T01:16:28;5;4;
64627;PMS5003;59036;50.960;0.314;2022-10-31T01:18:55;6;5;
64627;PMS5003;59036;50.960;0.314;2022-10-31T01:21:23;5;5;
64627;PMS5003;59036;50.960;0.314;2022-10-31T01:23:52;7;5;
64627;PMS5003;59036;50.960;0.314;2022-10-31T01:26:21;7;7;
64627;PMS5003;59036;50.960;0.314;2022-10-31T01:28:49;5;5;
64627;PMS5003;59036;50.960;0.314;2022-10-31T01:31:18;4;4;
64627;PMS5003;59036;50.960;0.314;2022-10-31T01:33:47;4;4;
64627;PMS5003;59036;50.960;0.314;2022-10-31T01:36:16;3;3;
64627;PMS5003;59036;50.960;0.314;2022-10-31T01:38:45;5;5;
64627;PMS5003;59036;50.960;0.314;2022-10-31T01:41:13;5;5;
64627;PMS5003;59036;50.960;0.314;2022-10-31T01:43:43;5;4;
64627;PMS5003;59036;50.960;0.314;2022-10-31T01:46:13;4;4;
64627;PMS5003;59036;50.960;0.314;2022-10-31T01:48:42;4;3;
64627;PMS5003;59036;50.960;0.314;2022-10-31T01:51:09;2;2;
64627;PMS5003;59036;50.960;0.314;2022-10-31T01:53:39;4;4;
64627;PMS5003;59036;50.960;0.314;2022-10-31T01:56:10;5;5;
64627;PMS5003;59036;50.960;0.314;2022-10-31T01:58:39;4;4;
64627;PMS5003;59036;50.960;0.314;2022-10-31T02:01:07;4;4;
64627;PMS5003;59036;50.960;0.314;2022-10-31T02:03:34;5;4;
64627;PMS5003;59036;50.960;0.314;2022-10-31T02:06:02;4;4;
64627;PMS5003;59036;50.960;0.314;2022-10-31T02:08:33;5;5;
64627;PMS5003;59036;50.960;0.314;2022-10-31T02:11:01;4;4;
64627;PMS5003;59036;50.960;0.314;2022-10-31T02:13:28;6;6;
64627;PMS5003;59036;50.960;0.314;2022-10-31T02:15:58;5;5;
64627;PMS5003;59036;50.960;0.314;2022-10-31T02:18:26;7;7;
64627;PMS5003;59036;50.960;0.314;2022-10-31T02:21:02;5;5;
64627;PMS5003;59036;50.960;0.314;2022-10-31T02:24:44;3;3;
64627;PMS5003;59036;50.960;0.314;2022-10-31T02:28:33;4;4;
64627;PMS5003;59036;50.960;0.314;2022-10-31T02:31:13;4;4;
64627;PMS5003;59036;50.960;0.314;2022-10-31T02:33:50;5;5;
64627;PMS5003;59036;50.960;0.314;2022-10-31T02:36:21;6;5;
64627;PMS5003;59036;50.960;0.314;2022-10-31T02:38:56;5;5;
64627;PMS5003;59036;50.960;0.314;2022-10-31T02:41:40;5;4;
64627;PMS5003;59036;50.960;0.314;2022-10-31T02:44:16;3;3;
64627;PMS5003;59036;50.960;0.314;2022-10-31T02:46:49;4;4;
64627;PMS5003;59036;50.960;0.314;2022-10-31T02:49:22;4;4;
64627;PMS5003;59036;50.960;0.314;2022-10-31T02:51:54;6;4;
64627;PMS5003;59036;50.960;0.314;2022-10-31T02:54:22;7;5;
64627;PMS5003;59036;50.960;0.314;2022-10-31T02:56:52;6;4;
64627;PMS5003;59036;50.960;0.314;2022-10-31T02:59:24;5;5;
64627;PMS5003;59036;50.960;0.314;2022-10-31T03:01:57;5;5;
64627;PMS5003;59036;50.960;0.314;2022-10-31T03:04:41;7;5;
64627;PMS5003;59036;50.960;0.314;2022-10-31T03:07:37;7;5;
64627;PMS5003;59036;50.960;0.314;2022-10-31T03:10:12;2;2;
64627;PMS5003;59036;50.960;0.314;2022-10-31T03:12:45;8;7;
64627;PMS5003;59036;50.960;0.314;2022-10-31T03:15:22;4;3;
64627;PMS5003;59036;50.960;0.314;2022-10-31T03:17:54;4;4;
64627;PMS5003;59036;50.960;0.314;2022-10-31T03:20:28;6;5;
64627;PMS5003;59036;50.960;0.314;2022-10-31T03:23:01;6;5;
64627;PMS5003;59036;50.960;0.314;2022-10-31T03:25:30;6;5;
64627;PMS5003;59036;50.960;0.314;2022-10-31T03:28:02;5;5;
64627;PMS5003;59036;50.960;0.314;2022-10-31T03:30:31;5;5;
64627;PMS5003;59036;50.960;0.314;2022-10-31T03:33:03;8;7;
64627;PMS5003;59036;50.960;0.314;2022-10-31T03:35:34;5;4;
64627;PMS5003;59036;50.960;0.314;2022-10-31T03:38:03;3;3;
64627;PMS5003;59036;50.960;0.314;2022-10-31T03:40:31;2;2;
64627;PMS5003;59036;50.960;0.314;2022-10-31T03:43:03;4;4;
64627;PMS5003;59036;50.960;0.314;2022-10-31T03:45:40;5;5;
64627;PMS5003;59036;50.960;0.314;2022-10-31T03:48:10;6;5;
64627;PMS5003;59036;50.960;0.314;2022-10-31T03:50:39;5;5;
64627;PMS5003;59036;50.960;0.314;2022-10-31T03:53:14;5;5;
64627;PMS5003;59036;50.960;0.314;2022-10-31T03:55:47;4;4;
64627;PMS5003;59036;50.960;0.314;2022-10-31T03:58:20;6;6;
64627;PMS5003;59036;50.960;0.314;2022-10-31T04:00:51;4;4;
64627;PMS5003;59036;50.960;0.314;2022-10-31T04:03:21;6;5;
64627;PMS5003;59036;50.960;0.314;2022-10-31T04:05:52;3;3;
64627;PMS5003;59036;50.960;0.314;2022-10-31T04:08:24;5;5;
64627;PMS5003;59036;50.960;0.314;2022-10-31T04:11:01;5;5;
64627;PMS5003;59036;50.960;0.314;2022-10-31T04:13:31;4;4;
64627;PMS5003;59036;50.960;0.314;2022-10-31T04:16:02;9;7;
64627;PMS5003;59036;50.960;0.314;2022-10-31T04:18:29;8;6;
64627;PMS5003;59036;50.960;0.314;2022-10-31T04:21:00;4;3;
64627;PMS5003;59036;50.960;0.314;2022-10-31T04:23:29;4;3;
64627;PMS5003;59036;50.960;0.314;2022-10-31T04:25:56;5;4;
64627;PMS5003;59036;50.960;0.314;2022-10-31T04:28:23;5;5;
64627;PMS5003;59036;50.960;0.314;2022-10-31T04:30:51;4;4;
64627;PMS5003;59036;50.960;0.314;2022-10-31T04:33:19;5;4;
64627;PMS5003;59036;50.960;0.314;2022-10-31T04:35:46;5;5;
64627;PMS5003;59036;50.960;0.314;2022-10-31T04:38:13;7;4;
64627;PMS5003;59036;50.960;0.314;2022-10-31T04:40:40;4;4;
64627;PMS5003;59036;50.960;0.314;2022-10-31T04:43:07;5;5;
64627;PMS5003;59036;50.960;0.314;2022-10-31T04:45:34;4;4;
64627;PMS5003;59036;50.960;0.314;2022-10-31T04:48:01;4;4;
64627;PMS5003;59036;50.960;0.314;2022-10-31T04:50:28;5;5;
64627;PMS5003;59036;50.960;0.314;2022-10-31T04:52:55;7;6;
64627;PMS5003;59036;50.960;0.314;2022-10-31T04:55:22;6;5;
64627;PMS5003;59036;50.960;0.314;2022-10-31T04:57:49;5;4;
64627;PMS5003;59036;50.960;0.314;2022-10-31T05:00:17;7;6;
64627;PMS5003;59036;50.960;0.314;2022-10-31T05:02:46;5;4;
64627;PMS5003;59036;50.960;0.314;2022-10-31T05:05:14;5;4;
64627;PMS5003;59036;50.960;0.314;2022-10-31T05:07:43;4;4;
64627;PMS5003;59036;50.960;0.314;2022-10-31T05:10:12;4;4;
64627;PMS5003;59036;50.960;0.314;2022-10-31T05:12:45;4;4;
64627;PMS5003;59036;50.960;0.314;2022-10-31T05:15:14;4;4;
64627;PMS5003;59036;50.960;0.314;2022-10-31T05:17:42;4;3;
64627;PMS5003;59036;50.960;0.314;2022-10-31T05:20:10;5;4;
64627;PMS5003;59036;50.960;0.314;2022-10-31T05:22:41;6;5;
64627;PMS5003;59036;50.960;0.314;2022-10-31T05:25:08;6;5;
64627;PMS5003;59036;50.960;0.314;2022-10-31T05:27:38;4;3;
64627;PMS5003;59036;50.960;0.314;2022-10-31T05:30:05;5;5;
64627;PMS5003;59036;50.960;0.314;2022-10-31T05:32:36;3;2;
64627;PMS5003;59036;50.960;0.314;2022-10-31T05:35:04;6;5;
64627;PMS5003;59036;50.960;0.314;2022-10-31T05:37:31;5;4;
64627;PMS5003;59036;50.960;0.314;2022-10-31T05:39:59;5;5;
64627;PMS5003;59036;50.960;0.314;2022-10-31T05:42:26;4;3;
64627;PMS5003;59036;50.960;0.314;2022-10-31T05:44:53;6;6;
64627;PMS5003;59036;50.960;0.314;2022-10-31T05:47:20;5;5;
64627;PMS5003;59036;50.960;0.314;2022-10-31T05:49:47;9;9;
64627;PMS5003;59036;50.960;0.314;2022-10-31T05:52:14;3;3;
64627;PMS5003;59036;50.960;0.314;2022-10-31T05:54:41;4;4;
64627;PMS5003;59036;50.960;0.314;2022-10-31T05:57:08;7;6;
64627;PMS5003;59036;50.960;0.314;2022-10-31T05:59:35;7;5;
64627;PMS5003;59036;50.960;0.314;2022-10-31T06:02:05;5;5;
64627;PMS5003;59036;50.960;0.314;2022-10-31T06:04:32;5;5;
64627;PMS5003;59036;50.960;0.314;2022-10-31T06:07:00;8;6;
64627;PMS5003;59036;50.960;0.314;2022-10-31T06:09:27;4;4;
64627;PMS5003;59036;50.960;0.314;2022-10-31T06:11:54;8;7;
64627;PMS5003;59036;50.960;0.314;2022-10-31T06:14:21;6;4;
64627;PMS5003;59036;50.960;0.314;2022-10-31T06:16:48;5;5;
64627;PMS5003;59036;50.960;0.314;2022-10-31T06:19:15;4;4;
64627;PMS5003;59036;50.960;0.314;2022-10-31T06:21:42;5;5;
64627;PMS5003;59036;50.960;0.314;2022-10-31T06:24:09;5;4;
64627;PMS5003;59036;50.960;0.314;2022-10-31T06:26:36;6;6;
64627;PMS5003;59036;50.960;0.314;2022-10-31T06:29:03;5;5;
64627;PMS5003;59036;50.960;0.314;2022-10-31T06:31:30;4;4;
64627;PMS5003;59036;50.960;0.314;2022-10-31T06:33:57;6;6;
64627;PMS5003;59036;50.960;0.314;2022-10-31T06:36:24;8;8;
64627;PMS5003;59036;50.960;0.314;2022-10-31T06:38:51;5;4;
64627;PMS5003;59036;50.960;0.314;2022-10-31T06:41:19;8;7;
64627;PMS5003;59036;50.960;0.314;2022-10-31T06:43:46;8;8;
64627;PMS5003;59036;50.960;0.314;2022-10-31T06:46:13;7;6;
64627;PMS5003;59036;50.960;0.314;2022-10-31T06:48:40;8;7;
64627;PMS5003;59036;50.960;0.314;2022-10-31T06:51:07;6;6;
64627;PMS5003;59036;50.960;0.314;2022-10-31T06:53:34;9;8;
64627;PMS5003;59036;50.960;0.314;2022-10-31T06:56:02;6;6;
64627;PMS5003;59036;50.960;0.314;2022-10-31T06:58:30;8;7;
64627;PMS5003;59036;50.960;0.314;2022-10-31T07:00:58;8;7;
64627;PMS5003;59036;50.960;0.314;2022-10-31T07:03:26;6;6;
64627;PMS5003;59036;50.960;0.314;2022-10-31T07:05:54;7;6;
64627;PMS5003;59036;50.960;0.314;2022-10-31T07:08:21;8;6;
64627;PMS5003;59036;50.960;0.314;2022-10-31T07:10:51;7;7;
64627;PMS5003;59036;50.960;0.314;2022-10-31T07:13:19;7;6;
64627;PMS5003;59036;50.960;0.314;2022-10-31T07:15:47;5;5;
64627;PMS5003;59036;50.960;0.314;2022-10-31T07:18:14;8;7;
64627;PMS5003;59036;50.960;0.314;2022-10-31T07:20:41;7;6;
64627;PMS5003;59036;50.960;0.314;2022-10-31T07:23:08;6;5;
64627;PMS5003;59036;50.960;0.314;2022-10-31T07:25:36;8;7;
64627;PMS5003;59036;50.960;0.314;2022-10-31T07:28:03;9;8;
64627;PMS5003;59036;50.960;0.314;2022-10-31T07:30:31;7;6;
64627;PMS5003;59036;50.960;0.314;2022-10-31T07:32:59;9;8;
64627;PMS5003;59036;50.960;0.314;2022-10-31T07:35:27;6;6;
64627;PMS5003;59036;50.960;0.314;2022-10-31T07:37:55;7;7;
64627;PMS5003;59036;50.960;0.314;2022-10-31T07:40:23;12;11;
64627;PMS5003;59036;50.960;0.314;2022-10-31T07:42:51;8;6;
64627;PMS5003;59036;50.960;0.314;2022-10-31T07:45:19;7;6;
64627;PMS5003;59036;50.960;0.314;2022-10-31T07:47:47;8;8;
64627;PMS5003;59036;50.960;0.314;2022-10-31T07:50:16;5;5;
64627;PMS5003;59036;50.960;0.314;2022-10-31T07:52:45;6;6;
64627;PMS5003;59036;50.960;0.314;2022-10-31T07:55:13;8;8;
64627;PMS5003;59036;50.960;0.314;2022-10-31T07:57:40;6;6;
64627;PMS5003;59036;50.960;0.314;2022-10-31T08:00:09;7;6;
64627;PMS5003;59036;50.960;0.314;2022-10-31T08:02:37;7;6;
64627;PMS5003;59036;50.960;0.314;2022-10-31T08:05:04;8;7;
64627;PMS5003;59036;50.960;0.314;2022-10-31T08:07:35;5;5;
64627;PMS5003;59036;50.960;0.314;2022-10-31T08:10:03;5;5;
64627;PMS5003;59036;50.960;0.314;2022-10-31T08:12:30;6;6;
64627;PMS5003;59036;50.960;0.314;2022-10-31T08:14:57;6;6;
64627;PMS5003;59036;50.960;0.314;2022-10-31T08:17:24;9;7;
64627;PMS5003;59036;50.960;0.314;2022-10-31T08:19:51;7;6;
64627;PMS5003;59036;50.960;0.314;2022-10-31T08:22:19;9;7;
64627;PMS5003;59036;50.960;0.314;2022-10-31T08:24:47;6;6;
64627;PMS5003;59036;50.960;0.314;2022-10-31T08:27:14;9;7;
64627;PMS5003;59036;50.960;0.314;2022-10-31T08:29:41;6;5;
64627;PMS5003;59036;50.960;0.314;2022-10-31T08:32:08;8;7;
64627;PMS5003;59036;50.960;0.314;2022-10-31T08:34:35;5;5;
64627;PMS5003;59036;50.960;0.314;2022-10-31T08:37:02;6;6;
64627;PMS5003;59036;50.960;0.314;2022-10-31T08:39:29;5;4;
64627;PMS5003;59036;50.960;0.314;2022-10-31T08:41:56;5;5;
64627;PMS5003;59036;50.960;0.314;2022-10-31T08:44:23;6;6;
64627;PMS5003;59036;50.960;0.314;2022-10-31T08:46:50;6;6;
64627;PMS5003;59036;50.960;0.314;2022-10-31T08:49:17;6;6;
64627;PMS5003;59036;50.960;0.314;2022-10-31T08:51:47;8;7;
64627;PMS5003;59036;50.960;0.314;2022-10-31T08:54:14;6;6;
64627;PMS5003;59036;50.960;0.314;2022-10-31T08:56:41;6;6;
64627;PMS5003;59036;50.960;0.314;2022-10-31T08:59:08;8;6;
64627;PMS5003;59036;50.960;0.314;2022-10-31T09:01:34;8;8;
64627;PMS5003;59036;50.960;0.314;2022-10-31T09:04:02;8;6;
64627;PMS5003;59036;50.960;0.314;2022-10-31T09:06:29;10;9;
64627;PMS5003;59036;50.960;0.314;2022-10-31T09:08:56;9;9;
64627;PMS5003;59036;50.960;0.314;2022-10-31T09:11:23;10;8;
64627;PMS5003;59036;50.960;0.314;2022-10-31T09:13:51;9;7;
64627;PMS5003;59036;50.960;0.314;2022-10-31T09:16:19;8;8;
64627;PMS5003;59036;50.960;0.314;2022-10-31T09:18:46;9;8;
64627;PMS5003;59036;50.960;0.314;2022-10-31T09:21:13;10;10;
64627;PMS5003;59036;50.960;0.314;2022-10-31T09:23:40;8;8;
64627;PMS5003;59036;50.960;0.314;2022-10-31T09:26:07;6;6;
64627;PMS5003;59036;50.960;0.314;2022-10-31T09:28:34;7;6;
64627;PMS5003;59036;50.960;0.314;2022-10-31T09:31:01;5;5;
64627;PMS5003;59036;50.960;0.314;2022-10-31T09:33:28;7;6;
64627;PMS5003;59036;50.960;0.314;2022-10-31T09:35:57;7;6;
64627;PMS5003;59036;50.960;0.314;2022-10-31T09:38:25;7;7;
64627;PMS5003;59036;50.960;0.314;2022-10-31T09:40:54;11;8;
64627;PMS5003;59036;50.960;0.314;2022-10-31T09:43:29;6;5;
64627;PMS5003;59036;50.960;0.314;2022-10-31T09:46:04;7;7;
64627;PMS5003;59036;50.960;0.314;2022-10-31T09:48:43;6;6;
64627;PMS5003;59036;50.960;0.314;2022-10-31T09:51:19;7;7;
64627;PMS5003;59036;50.960;0.314;2022-10-31T09:53:53;5;5;
64627;PMS5003;59036;50.960;0.314;2022-10-31T09:56:24;5;5;
64627;PMS5003;59036;50.960;0.314;2022-10-31T09:58:55;6;5;
64627;PMS5003;59036;50.960;0.314;2022-10-31T10:01:33;7;7;
64627;PMS5003;59036;50.960;0.314;2022-10-31T10:04:13;7;5;
64627;PMS5003;59036;50.960;0.314;2022-10-31T10:06:50;4;4;
64627;PMS5003;59036;50.960;0.314;2022-10-31T10:09:19;5;4;
64627;PMS5003;59036;50.960;0.314;2022-10-31T10:11:54;6;4;
64627;PMS5003;59036;50.960;0.314;2022-10-31T10:14:34;4;3;
64627;PMS5003;59036;50.960;0.314;2022-10-31T10:17:13;5;4;
64627;PMS5003;59036;50.960;0.314;2022-10-31T10:19:52;3;2;
64627;PMS5003;59036;50.960;0.314;2022-10-31T10:22:33;4;4;
64627;PMS5003;59036;50.960;0.314;2022-10-31T10:25:12;3;3;
64627;PMS5003;59036;50.960;0.314;2022-10-31T10:27:48;4;3;
64627;PMS5003;59036;50.960;0.314;2022-10-31T10:30:21;3;3;
64627;PMS5003;59036;50.960;0.314;2022-10-31T10:32:51;3;3;
64627;PMS5003;59036;50.960;0.314;2022-10-31T10:35:24;4;3;
64627;PMS5003;59036;50.960;0.314;2022-10-31T10:37:56;4;3;
64627;PMS5003;59036;50.960;0.314;2022-10-31T10:40:27;5;4;
64627;PMS5003;59036;50.960;0.314;2022-10-31T10:42:57;5;4;
64627;PMS5003;59036;50.960;0.314;2022-10-31T10:45:37;5;5;
64627;PMS5003;59036;50.960;0.314;2022-10-31T10:48:06;3;3;
64627;PMS5003;59036;50.960;0.314;2022-10-31T10:50:41;4;4;
64627;PMS5003;59036;50.960;0.314;2022-10-31T10:53:18;3;3;
64627;PMS5003;59036;50.960;0.314;2022-10-31T10:55:59;7;7;
64627;PMS5003;59036;50.960;0.314;2022-10-31T10:58:37;7;7;
64627;PMS5003;59036;50.960;0.314;2022-10-31T11:01:09;5;4;
64627;PMS5003;59036;50.960;0.314;2022-10-31T11:03:37;4;4;
64627;PMS5003;59036;50.960;0.314;2022-10-31T11:06:15;6;6;
64627;PMS5003;59036;50.960;0.314;2022-10-31T11:08:44;6;6;
64627;PMS5003;59036;50.960;0.314;2022-10-31T11:11:13;6;6;
64627;PMS5003;59036;50.960;0.314;2022-10-31T11:13:54;5;5;
64627;PMS5003;59036;50.960;0.314;2022-10-31T11:16:27;5;4;
64627;PMS5003;59036;50.960;0.314;2022-10-31T11:19:05;5;4;
64627;PMS5003;59036;50.960;0.314;2022-10-31T11:21:36;4;4;
64627;PMS5003;59036;50.960;0.314;2022-10-31T11:24:03;5;5;
64627;PMS5003;59036;50.960;0.314;2022-10-31T11:26:39;4;4;
64627;PMS5003;59036;50.960;0.314;2022-10-31T11:29:11;5;5;
64627;PMS5003;59036;50.960;0.314;2022-10-31T11:31:41;6;5;
64627;PMS5003;59036;50.960;0.314;2022-10-31T11:34:13;4;4;
64627;PMS5003;59036;50.960;0.314;2022-10-31T11:36:53;3;3;
64627;PMS5003;59036;50.960;0.314;2022-10-31T11:39:23;4;4;
64627;PMS5003;59036;50.960;0.314;2022-10-31T11:41:52;3;3;
64627;PMS5003;59036;50.960;0.314;2022-10-31T11:44:20;3;3;
64627;PMS5003;59036;50.960;0.314;2022-10-31T11:46:52;3;3;
64627;PMS5003;59036;50.960;0.314;2022-10-31T11:49:24;4;4;
64627;PMS5003;59036;50.960;0.314;2022-10-31T11:51:55;5;5;
64627;PMS5003;59036;50.960;0.314;2022-10-31T11:54:25;5;4;
64627;PMS5003;59036;50.960;0.314;2022-10-31T11:56:54;4;4;
64627;PMS5003;59036;50.960;0.314;2022-10-31T11:59:23;3;3;
64627;PMS5003;59036;50.960;0.314;2022-10-31T12:01:53;3;3;
64627;PMS5003;59036;50.960;0.314;2022-10-31T12:04:24;3;3;
64627;PMS5003;59036;50.960;0.314;2022-10-31T12:06:57;2;2;
64627;PMS5003;59036;50.960;0.314;2022-10-31T12:09:26;2;2;
64627;PMS5003;59036;50.960;0.314;2022-10-31T12:12:00;3;3;
64627;PMS5003;59036;50.960;0.314;2022-10-31T12:14:39;4;3;
64627;PMS5003;59036;50.960;0.314;2022-10-31T12:17:14;3;3;
64627;PMS5003;59036;50.960;0.314;2022-10-31T12:19:45;4;4;
64627;PMS5003;59036;50.960;0.314;2022-10-31T12:22:23;4;4;
64627;PMS5003;59036;50.960;0.314;2022-10-31T12:25:02;3;3;
64627;PMS5003;59036;50.960;0.314;2022-10-31T12:27:45;3;3;
64627;PMS5003;59036;50.960;0.314;2022-10-31T12:30:28;4;4;
64627;PMS5003;59036;50.960;0.314;2022-10-31T12:33:13;3;3;
64627;PMS5003;59036;50.960;0.314;2022-10-31T12:35:51;3;3;
64627;PMS5003;59036;50.960;0.314;2022-10-31T12:38:39;4;3;
64627;PMS5003;59036;50.960;0.314;2022-10-31T12:41:19;4;3;
64627;PMS5003;59036;50.960;0.314;2022-10-31T12:44:02;3;3;
64627;PMS5003;59036;50.960;0.314;2022-10-31T12:46:42;3;3;
64627;PMS5003;59036;50.960;0.314;2022-10-31T12:49:27;4;3;
64627;PMS5003;59036;50.960;0.314;2022-10-31T12:52:15;4;3;
64627;PMS5003;59036;50.960;0.314;2022-10-31T12:54:59;4;3;
64627;PMS5003;59036;50.960;0.314;2022-10-31T12:57:38;3;3;
64627;PMS5003;59036;50.960;0.314;2022-10-31T13:00:11;3;3;
64627;PMS5003;59036;50.960;0.314;2022-10-31T13:02:42;3;2;
64627;PMS5003;59036;50.960;0.314;2022-10-31T13:05:17;2;2;
64627;PMS5003;59036;50.960;0.314;2022-10-31T13:07:52;3;3;
64627;PMS5003;59036;50.960;0.314;2022-10-31T13:10:24;3;3;
64627;PMS5003;59036;50.960;0.314;2022-10-31T13:12:57;3;3;
64627;PMS5003;59036;50.960;0.314;2022-10-31T13:15:32;4;3;
64627;PMS5003;59036;50.960;0.314;2022-10-31T13:18:16;4;4;
64627;PMS5003;59036;50.960;0.314;2022-10-31T13:20:50;3;3;
64627;PMS5003;59036;50.960;0.314;2022-10-31T13:23:20;3;3;
64627;PMS5003;59036;50.960;0.314;2022-10-31T13:25:54;4;4;
64627;PMS5003;59036;50.960;0.314;2022-10-31T13:28:24;2;2;
64627;PMS5003;59036;50.960;0.314;2022-10-31T13:30:57;5;4;
64627;PMS5003;59036;50.960;0.314;2022-10-31T13:33:24;3;3;
64627;PMS5003;59036;50.960;0.314;2022-10-31T13:35:59;6;6;
64627;PMS5003;59036;50.960;0.314;2022-10-31T13:38:41;3;2;
64627;PMS5003;59036;50.960;0.314;2022-10-31T13:41:22;3;3;
64627;PMS5003;59036;50.960;0.314;2022-10-31T13:43:59;3;3;
64627;PMS5003;59036;50.960;0.314;2022-10-31T13:46:35;5;5;
64627;PMS5003;59036;50.960;0.314;2022-10-31T13:49:18;5;5;
64627;PMS5003;59036;50.960;0.314;2022-10-31T13:51:50;5;5;
64627;PMS5003;59036;50.960;0.314;2022-10-31T13:54:23;5;4;
64627;PMS5003;59036;50.960;0.314;2022-10-31T13:56:58;4;4;
64627;PMS5003;59036;50.960;0.314;2022-10-31T13:59:26;6;6;
64627;PMS5003;59036;50.960;0.314;2022-10-31T14:01:56;6;5;
64627;PMS5003;59036;50.960;0.314;2022-10-31T14:04:26;5;5;
64627;PMS5003;59036;50.960;0.314;2022-10-31T14:07:05;4;4;
64627;PMS5003;59036;50.960;0.314;2022-10-31T14:09:35;6;6;
64627;PMS5003;59036;50.960;0.314;2022-10-31T14:12:06;4;4;
64627;PMS5003;59036;50.960;0.314;2022-10-31T14:14:42;7;6;
64627;PMS5003;59036;50.960;0.314;2022-10-31T14:17:17;7;6;
64627;PMS5003;59036;50.960;0.314;2022-10-31T14:22:50;6;6;
64627;PMS5003;59036;50.960;0.314;2022-10-31T14:25:33;8;7;
64627;PMS5003;59036;50.960;0.314;2022-10-31T14:28:03;6;6;
64627;PMS5003;59036;50.960;0.314;2022-10-31T14:30:51;8;8;
64627;PMS5003;59036;50.960;0.314;2022-10-31T14:33:19;10;9;
64627;PMS5003;59036;50.960;0.314;2022-10-31T14:35:51;6;6;
64627;PMS5003;59036;50.960;0.314;2022-10-31T14:38:27;7;7;
64627;PMS5003;59036;50.960;0.314;2022-10-31T14:41:09;6;6;
64627;PMS5003;59036;50.960;0.314;2022-10-31T14:43:52;9;9;
64627;PMS5003;59036;50.960;0.314;2022-10-31T14:46:45;7;7;
64627;PMS5003;59036;50.960;0.314;2022-10-31T14:49:23;10;9;
64627;PMS5003;59036;50.960;0.314;2022-10-31T14:52:04;10;9;
64627;PMS5003;59036;50.960;0.314;2022-10-31T14:54:34;7;7;
64627;PMS5003;59036;50.960;0.314;2022-10-31T14:57:07;10;10;
64627;PMS5003;59036;50.960;0.314;2022-10-31T14:59:42;11;10;
64627;PMS5003;59036;50.960;0.314;2022-10-31T15:02:15;10;9;
64627;PMS5003;59036;50.960;0.314;2022-10-31T15:04:47;12;10;
64627;PMS5003;59036;50.960;0.314;2022-10-31T15:07:18;11;11;
64627;PMS5003;59036;50.960;0.314;2022-10-31T15:09:55;11;11;
64627;PMS5003;59036;50.960;0.314;2022-10-31T15:12:24;13;11;
64627;PMS5003;59036;50.960;0.314;2022-10-31T15:14:52;10;10;
64627;PMS5003;59036;50.960;0.314;2022-10-31T15:17:20;11;11;
64627;PMS5003;59036;50.960;0.314;2022-10-31T15:19:48;10;10;
64627;PMS5003;59036;50.960;0.314;2022-10-31T15:22:17;9;9;
64627;PMS5003;59036;50.960;0.314;2022-10-31T15:24:46;13;13;
64627;PMS5003;59036;50.960;0.314;2022-10-31T15:27:15;14;12;
64627;PMS5003;59036;50.960;0.314;2022-10-31T15:29:47;14;13;
64627;PMS5003;59036;50.960;0.314;2022-10-31T15:32:17;11;10;
64627;PMS5003;59036;50.960;0.314;2022-10-31T15:34:46;12;12;
64627;PMS5003;59036;50.960;0.314;2022-10-31T15:37:13;13;12;
64627;PMS5003;59036;50.960;0.314;2022-10-31T15:39:43;11;11;
64627;PMS5003;59036;50.960;0.314;2022-10-31T15:42:17;11;11;
64627;PMS5003;59036;50.960;0.314;2022-10-31T15:44:47;10;10;
64627;PMS5003;59036;50.960;0.314;2022-10-31T15:47:23;14;14;
64627;PMS5003;59036;50.960;0.314;2022-10-31T15:49:51;13;13;
64627;PMS5003;59036;50.960;0.314;2022-10-31T15:52:23;12;12;
64627;PMS5003;59036;50.960;0.314;2022-10-31T15:54:55;17;16;
64627;PMS5003;59036;50.960;0.314;2022-10-31T15:57:25;14;14;
64627;PMS5003;59036;50.960;0.314;2022-10-31T15:59:52;14;13;
64627;PMS5003;59036;50.960;0.314;2022-10-31T16:02:21;14;14;
64627;PMS5003;59036;50.960;0.314;2022-10-31T16:04:51;16;15;
64627;PMS5003;59036;50.960;0.314;2022-10-31T16:07:20;12;12;
64627;PMS5003;59036;50.960;0.314;2022-10-31T16:09:49;12;11;
64627;PMS5003;59036;50.960;0.314;2022-10-31T16:12:19;12;12;
64627;PMS5003;59036;50.960;0.314;2022-10-31T16:14:47;12;11;
64627;PMS5003;59036;50.960;0.314;2022-10-31T16:17:15;16;14;
64627;PMS5003;59036;50.960;0.314;2022-10-31T16:19:46;12;12;
64627;PMS5003;59036;50.960;0.314;2022-10-31T16:22:19;11;11;
64627;PMS5003;59036;50.960;0.314;2022-10-31T16:24:49;10;9;
64627;PMS5003;59036;50.960;0.314;2022-10-31T16:27:20;13;13;
64627;PMS5003;59036;50.960;0.314;2022-10-31T16:29:49;14;13;
64627;PMS5003;59036;50.960;0.314;2022-10-31T16:32:33;11;10;
64627;PMS5003;59036;50.960;0.314;2022-10-31T16:35:17;17;17;
64627;PMS5003;59036;50.960;0.314;2022-10-31T16:37:50;14;14;
64627;PMS5003;59036;50.960;0.314;2022-10-31T16:40:17;16;15;
64627;PMS5003;59036;50.960;0.314;2022-10-31T16:42:44;17;15;
64627;PMS5003;59036;50.960;0.314;2022-10-31T16:45:14;19;16;
64627;PMS5003;59036;50.960;0.314;2022-10-31T16:47:43;20;20;
64627;PMS5003;59036;50.960;0.314;2022-10-31T16:50:12;21;20;
64627;PMS5003;59036;50.960;0.314;2022-10-31T16:52:41;24;23;
64627;PMS5003;59036;50.960;0.314;2022-10-31T16:55:10;22;21;
64627;PMS5003;59036;50.960;0.314;2022-10-31T16:57:38;19;19;
64627;PMS5003;59036;50.960;0.314;2022-10-31T17:00:12;19;19;
64627;PMS5003;59036;50.960;0.314;2022-10-31T17:02:41;19;19;
64627;PMS5003;59036;50.960;0.314;2022-10-31T17:05:10;21;20;
64627;PMS5003;59036;50.960;0.314;2022-10-31T17:07:39;25;23;
64627;PMS5003;59036;50.960;0.314;2022-10-31T17:10:08;22;22;
64627;PMS5003;59036;50.960;0.314;2022-10-31T17:12:37;26;26;
64627;PMS5003;59036;50.960;0.314;2022-10-31T17:15:10;25;24;